createdAt,value
2023-03-08T00:00:19.300Z,86.80
2023-03-08T00:08:24.684Z,87.70
2023-03-08T00:16:32.964Z,86.90
2023-03-08T00:24:38.354Z,86.60
2023-03-08T00:32:46.412Z,86.30
2023-03-08T00:40:51.915Z,86.90
2023-03-08T00:49:00.035Z,86.70
2023-03-08T00:57:05.367Z,86.00
2023-03-08T01:05:14.201Z,85.70
2023-03-08T01:13:19.987Z,84.90
2023-03-08T01:21:31.857Z,83.60
2023-03-08T01:29:37.276Z,84.40
2023-03-08T01:37:45.327Z,85.00
2023-03-08T01:46:10.442Z,85.10
2023-03-08T01:54:22.692Z,85.40
2023-03-08T02:02:32.815Z,86.50
2023-03-08T02:10:41.454Z,86.20
2023-03-08T02:18:59.061Z,87.30
2023-03-08T02:27:10.986Z,87.80
2023-03-08T02:35:16.395Z,87.40
2023-03-08T02:43:24.448Z,87.70
2023-03-08T02:51:29.888Z,87.10
2023-03-08T02:59:39.673Z,86.30
2023-03-08T03:07:46.448Z,85.20
2023-03-08T03:15:59.138Z,84.80
2023-03-08T03:24:04.869Z,83.50
2023-03-08T03:32:21.828Z,82.60
2023-03-08T03:40:27.587Z,81.70
2023-03-08T03:48:41.230Z,82.30
2023-03-08T03:56:47.393Z,83.00
2023-03-08T04:04:55.695Z,84.60
2023-03-08T04:13:05.386Z,84.40
2023-03-08T04:21:14.400Z,84.40
2023-03-08T04:29:20.021Z,84.50
2023-03-08T04:37:36.416Z,84.80
2023-03-08T04:45:47.110Z,84.70
2023-03-08T04:53:56.353Z,84.10
2023-03-08T05:02:01.878Z,84.20
2023-03-08T05:10:13.531Z,84.30
2023-03-08T05:18:20.156Z,85.30
2023-03-08T05:26:28.831Z,85.00
2023-03-08T05:34:35.219Z,83.50
2023-03-08T05:42:45.751Z,83.10
2023-03-08T05:50:53.260Z,83.00
2023-03-08T05:59:01.664Z,82.80
2023-03-08T06:07:08.202Z,83.40
2023-03-08T06:15:21.685Z,82.20
2023-03-08T06:23:27.971Z,81.60
2023-03-08T06:31:36.085Z,81.10
2023-03-08T06:39:43.150Z,80.60
2023-03-08T06:47:51.422Z,80.10
2023-03-08T06:55:57.775Z,80.10
2023-03-08T07:04:06.017Z,80.10
2023-03-08T07:12:11.890Z,80.60
2023-03-08T07:20:21.488Z,80.30
2023-03-08T07:28:27.029Z,79.80
2023-03-08T07:36:36.105Z,78.70
2023-03-08T07:44:41.496Z,79.70
2023-03-08T07:52:49.707Z,77.90
2023-03-08T08:00:56.068Z,75.80
2023-03-08T08:09:04.148Z,76.20
2023-03-08T08:17:10.121Z,75.70
2023-03-08T08:25:18.178Z,74.60
2023-03-08T08:33:23.725Z,71.50
2023-03-08T08:41:32.515Z,63.10
2023-03-08T08:49:38.017Z,57.10
2023-03-08T08:57:45.976Z,57.00
2023-03-08T09:05:51.348Z,55.90
2023-03-08T09:13:59.491Z,56.80
2023-03-08T09:22:05.094Z,56.60
2023-03-08T09:30:17.033Z,56.60
2023-03-08T09:38:23.306Z,58.10
2023-03-08T09:46:37.412Z,57.50
2023-03-08T09:54:43.513Z,57.20
2023-03-08T10:03:04.694Z,56.80
2023-03-08T10:11:20.762Z,57.90
2023-03-08T10:19:34.083Z,54.80
2023-03-08T10:27:39.687Z,53.10
2023-03-08T10:36:00.240Z,48.40
2023-03-08T10:44:06.756Z,45.40
2023-03-08T10:52:28.159Z,43.80
2023-03-08T11:00:38.473Z,45.70
2023-03-08T11:08:57.251Z,44.00
2023-03-08T11:17:16.837Z,39.80
2023-03-08T11:25:41.076Z,40.40
2023-03-08T11:34:10.155Z,45.30
2023-03-08T11:42:28.827Z,49.70
2023-03-08T11:50:39.051Z,52.50
2023-03-08T11:58:54.307Z,54.20
2023-03-08T12:07:03.485Z,54.30
2023-03-08T12:15:23.623Z,54.00
2023-03-08T12:23:36.658Z,53.60
2023-03-08T12:31:48.170Z,53.90
2023-03-08T12:40:04.380Z,54.80
2023-03-08T12:48:26.997Z,54.80
2023-03-08T12:56:35.958Z,55.30
2023-03-08T13:04:44.400Z,54.60
2023-03-08T13:13:37.018Z,55.60
2023-03-08T13:21:56.621Z,55.50
2023-03-08T13:30:05.879Z,54.50
2023-03-08T13:38:25.020Z,53.80
2023-03-08T13:46:30.787Z,53.50
2023-03-08T13:54:41.091Z,53.10
2023-03-08T14:02:49.764Z,53.00
2023-03-08T14:11:02.085Z,53.00
2023-03-08T14:19:14.581Z,52.00
2023-03-08T14:27:41.735Z,53.40
2023-03-08T14:35:55.571Z,55.30
2023-03-08T14:44:04.638Z,57.50
2023-03-08T14:52:23.188Z,59.50
2023-03-08T15:00:32.108Z,60.50
2023-03-08T15:08:37.460Z,61.10
2023-03-08T15:16:45.468Z,61.90
2023-03-08T15:24:51.005Z,62.10
2023-03-08T15:32:59.758Z,63.40
2023-03-08T15:41:05.415Z,64.40
2023-03-08T15:49:14.498Z,64.60
2023-03-08T15:57:20.211Z,64.00
2023-03-08T16:05:29.283Z,65.40
2023-03-08T16:13:35.431Z,65.60
2023-03-08T16:21:43.880Z,66.10
2023-03-08T16:29:54.054Z,65.80
2023-03-08T16:38:07.219Z,66.20
2023-03-08T16:46:17.878Z,66.10
2023-03-08T16:54:26.258Z,66.40
2023-03-08T17:02:31.802Z,66.20
2023-03-08T17:10:43.732Z,66.60
2023-03-08T17:18:49.326Z,66.80
2023-03-08T17:26:59.618Z,67.60
2023-03-08T17:35:05.617Z,67.90
2023-03-08T17:43:13.548Z,67.80
2023-03-08T17:51:21.015Z,67.80
2023-03-08T17:59:28.940Z,67.90
2023-03-08T18:07:34.342Z,67.80
2023-03-08T18:15:54.949Z,68.20
2023-03-08T18:24:01.019Z,69.20
2023-03-08T18:32:11.360Z,69.50
2023-03-08T18:40:17.263Z,69.60
2023-03-08T18:48:27.105Z,69.80
2023-03-08T18:56:32.966Z,69.70
2023-03-08T19:04:45.288Z,70.30
2023-03-08T19:12:50.724Z,71.90
2023-03-08T19:20:59.068Z,74.10
2023-03-08T19:29:05.568Z,76.20
2023-03-08T19:37:16.433Z,75.60
2023-03-08T19:45:25.416Z,75.80
2023-03-08T19:53:34.134Z,74.40
2023-03-08T20:01:48.927Z,73.70
2023-03-08T20:10:15.423Z,74.00
2023-03-08T20:18:21.699Z,73.50
2023-03-08T20:26:31.849Z,73.10
2023-03-08T20:34:37.270Z,73.10
2023-03-08T20:42:45.530Z,72.90
2023-03-08T20:50:52.241Z,72.70
2023-03-08T20:59:01.155Z,72.70
2023-03-08T21:07:07.905Z,72.70
2023-03-08T21:15:16.068Z,72.10
2023-03-08T21:23:23.276Z,70.80
2023-03-08T21:31:31.458Z,68.60
2023-03-08T21:39:37.117Z,65.60
2023-03-08T21:47:45.170Z,64.90
2023-03-08T21:55:50.468Z,64.80
2023-03-08T22:03:59.710Z,63.30
2023-03-08T22:12:05.130Z,63.30
2023-03-08T22:20:14.915Z,61.80
2023-03-08T22:28:20.538Z,62.60
2023-03-08T22:36:29.034Z,63.20
2023-03-08T22:44:34.686Z,61.50
2023-03-08T22:52:42.612Z,61.20
2023-03-08T23:00:48.059Z,60.70
2023-03-08T23:08:56.104Z,60.70
2023-03-08T23:17:01.706Z,59.60
2023-03-08T23:25:10.941Z,60.80
2023-03-08T23:33:16.443Z,60.20
2023-03-08T23:41:24.535Z,62.30
2023-03-08T23:49:30.520Z,61.60
2023-03-08T23:57:38.398Z,61.10
